Date,TemperatureHighF,TemperatureAvgF,TemperatureLowF,DewpointHighF,DewpointAvgF,DewpointLowF,HumidityHigh,HumidityAvg,HumidityLow,PressureMaxIn,PressureMinIn,WindSpeedMaxMPH,WindSpeedAvgMPH,GustSpeedMaxMPH,PrecipitationSumIn
2013-3-1,73,58,45,24,10,-5,32,16,10,30.36,30.25,13,4,13,0.00
2013-3-2,81,63,49,28,21,14,33,22,10,30.33,30.19,11,4,11,0.00
2013-3-3,77,65,53,24,17,8,31,17,10,30.19,30.01,21,4,21,0.00
2013-3-4,70,61,50,32,24,8,46,26,12,30.15,29.96,19,4,19,0.00
2013-3-5,76,60,44,35,27,14,55,33,10,30.17,30.06,10,3,10,0.00
2013-3-6,79,64,50,34,26,14,52,28,10,30.11,29.99,11,3,11,0.00
2013-3-7,77,61,46,32,24,12,59,29,10,30.05,29.95,15,4,15,0.00
2013-3-8,60,52,40,50,39,25,95,67,29,30.01,29.84,22,5,22,0.39
2013-3-9,47,42,34,40,38,33,97,85,72,30.12,30.00,15,3,15,0.17
2013-3-10,62,50,39,40,36,27,88,61,27,30.20,30.11,17,4,17,0.00
2013-3-11,71,56,42,38,31,19,61,42,15,30.21,30.09,11,4,11,0.00
2013-3-12,80,62,48,41,30,-41,49,33,12,30.17,30.08,11,4,11,0.00
2013-3-13,85,68,48,36,26,15,56,24,10,30.22,30.12,11,4,11,0.00
2013-3-14,88,73,58,30,24,18,27,17,10,30.22,30.11,11,3,11,0.00
2013-3-15,90,72,53,37,24,16,53,19,10,30.14,30.03,15,4,15,0.00
2013-3-16,86,66,48,37,26,11,55,29,10,30.03,29.87,17,4,17,0.00
2013-3-17,80,63,47,36,24,12,57,29,10,30.02,29.92,19,4,19,0.00
2013-3-18,80,63,44,36,25,13,63,29,10,30.09,30.00,10,3,10,0.00
2013-3-19,78,64,49,36,27,14,55,28,10,30.13,30.03,14,4,14,0.00
2013-3-20,80,66,55,35,27,16,43,26,10,30.13,29.98,11,3,11,0.00
2013-3-21,77,63,50,38,32,18,60,34,11,29.98,29.85,10,2,10,0.00
2013-3-22,77,62,45,39,29,16,65,34,10,29.91,29.80,15,4,15,0.00
2013-3-23,72,58,43,41,23,1,76,34,10,30.06,29.91,19,4,19,0.00
2013-3-24,73,58,40,14,8,-1,33,15,10,30.08,29.96,14,4,14,0.00
2013-3-25,78,63,50,17,12,6,22,14,10,30.08,29.99,13,4,13,0.00
2013-3-26,84,67,53,22,16,7,28,15,10,30.06,29.94,16,4,16,0.00
2013-3-27,83,67,51,22,16,4,31,15,10,30.09,29.99,17,4,17,0.00
2013-3-28,81,66,50,26,18,7,31,17,10,30.15,30.06,13,4,13,0.00
2013-3-29,83,68,52,26,18,6,33,16,10,30.18,30.09,21,4,21,0.00
2013-3-30,80,68,59,27,18,7,29,15,10,30.16,30.05,12,3,12,0.00
2013-3-31,84,68,53,28,23,13,37,21,10,30.13,30.01,14,4,14,0.00